sensor_id;sensor_type;location;lat;lon;timestamp;temperature;humidity
17080;DHT22;8655;57.106;-2.088;2023-04-24T00:02:05;17.40;45.40
17080;DHT22;8655;57.106;-2.088;2023-04-24T00:04:32;17.40;45.40
17080;DHT22;8655;57.106;-2.088;2023-04-24T00:06:57;17.40;45.40
17080;DHT22;8655;57.106;-2.088;2023-04-24T00:09:25;17.40;45.40
17080;DHT22;8655;57.106;-2.088;2023-04-24T00:11:51;17.40;45.30
17080;DHT22;8655;57.106;-2.088;2023-04-24T00:14:17;17.30;45.30
17080;DHT22;8655;57.106;-2.088;2023-04-24T00:16:43;17.30;45.20
17080;DHT22;8655;57.106;-2.088;2023-04-24T00:19:09;17.30;45.20
17080;DHT22;8655;57.106;-2.088;2023-04-24T00:21:34;17.30;45.20
17080;DHT22;8655;57.106;-2.088;2023-04-24T00:24:00;17.30;45.20
17080;DHT22;8655;57.106;-2.088;2023-04-24T00:26:26;17.30;45.20
17080;DHT22;8655;57.106;-2.088;2023-04-24T00:28:51;17.30;45.20
17080;DHT22;8655;57.106;-2.088;2023-04-24T00:31:17;17.30;45.20
17080;DHT22;8655;57.106;-2.088;2023-04-24T00:33:43;17.20;45.10
17080;DHT22;8655;57.106;-2.088;2023-04-24T00:36:08;17.20;45.10
17080;DHT22;8655;57.106;-2.088;2023-04-24T00:38:35;17.20;45.10
17080;DHT22;8655;57.106;-2.088;2023-04-24T00:41:00;17.20;45.10
17080;DHT22;8655;57.106;-2.088;2023-04-24T00:43:26;17.20;45.10
17080;DHT22;8655;57.106;-2.088;2023-04-24T00:45:52;17.20;45.10
17080;DHT22;8655;57.106;-2.088;2023-04-24T00:48:18;17.20;45.10
17080;DHT22;8655;57.106;-2.088;2023-04-24T00:50:44;17.20;45.10
17080;DHT22;8655;57.106;-2.088;2023-04-24T00:53:10;17.10;45.00
17080;DHT22;8655;57.106;-2.088;2023-04-24T00:55:36;17.10;45.00
17080;DHT22;8655;57.106;-2.088;2023-04-24T00:58:03;17.10;45.00
17080;DHT22;8655;57.106;-2.088;2023-04-24T01:00:28;17.10;45.00
17080;DHT22;8655;57.106;-2.088;2023-04-24T01:02:55;17.10;45.00
17080;DHT22;8655;57.106;-2.088;2023-04-24T01:05:22;17.10;45.00
17080;DHT22;8655;57.106;-2.088;2023-04-24T01:07:48;17.10;45.00
17080;DHT22;8655;57.106;-2.088;2023-04-24T01:10:15;17.10;45.00
17080;DHT22;8655;57.106;-2.088;2023-04-24T01:12:42;17.00;44.90
17080;DHT22;8655;57.106;-2.088;2023-04-24T01:15:08;17.00;44.90
17080;DHT22;8655;57.106;-2.088;2023-04-24T01:17:34;17.00;44.90
17080;DHT22;8655;57.106;-2.088;2023-04-24T01:20:00;17.00;44.90
17080;DHT22;8655;57.106;-2.088;2023-04-24T01:22:26;17.00;44.90
17080;DHT22;8655;57.106;-2.088;2023-04-24T01:24:53;17.00;44.90
17080;DHT22;8655;57.106;-2.088;2023-04-24T01:27:19;17.00;44.90
17080;DHT22;8655;57.106;-2.088;2023-04-24T01:29:45;17.00;44.90
17080;DHT22;8655;57.106;-2.088;2023-04-24T01:32:13;17.00;44.90
17080;DHT22;8655;57.106;-2.088;2023-04-24T01:34:38;16.90;44.80
17080;DHT22;8655;57.106;-2.088;2023-04-24T01:37:05;16.90;44.80
17080;DHT22;8655;57.106;-2.088;2023-04-24T01:39:31;16.90;44.80
17080;DHT22;8655;57.106;-2.088;2023-04-24T01:41:57;16.90;44.80
17080;DHT22;8655;57.106;-2.088;2023-04-24T01:44:23;16.90;44.80
17080;DHT22;8655;57.106;-2.088;2023-04-24T01:46:49;16.90;44.80
17080;DHT22;8655;57.106;-2.088;2023-04-24T01:49:14;16.90;44.80
17080;DHT22;8655;57.106;-2.088;2023-04-24T01:51:41;16.90;44.80
17080;DHT22;8655;57.106;-2.088;2023-04-24T01:54:06;16.90;44.80
17080;DHT22;8655;57.106;-2.088;2023-04-24T01:56:34;16.80;44.70
17080;DHT22;8655;57.106;-2.088;2023-04-24T01:59:03;16.80;44.70
17080;DHT22;8655;57.106;-2.088;2023-04-24T02:01:36;16.80;44.60
17080;DHT22;8655;57.106;-2.088;2023-04-24T02:04:02;16.80;44.60
17080;DHT22;8655;57.106;-2.088;2023-04-24T02:06:28;16.80;44.60
17080;DHT22;8655;57.106;-2.088;2023-04-24T02:08:54;16.80;44.70
17080;DHT22;8655;57.106;-2.088;2023-04-24T02:11:20;16.80;44.60
17080;DHT22;8655;57.106;-2.088;2023-04-24T02:13:45;16.80;44.60
17080;DHT22;8655;57.106;-2.088;2023-04-24T02:16:11;16.80;44.60
17080;DHT22;8655;57.106;-2.088;2023-04-24T02:18:36;16.80;44.60
17080;DHT22;8655;57.106;-2.088;2023-04-24T02:21:02;16.80;44.60
17080;DHT22;8655;57.106;-2.088;2023-04-24T02:23:28;16.70;44.50
17080;DHT22;8655;57.106;-2.088;2023-04-24T02:25:53;16.70;44.50
17080;DHT22;8655;57.106;-2.088;2023-04-24T02:28:19;16.70;44.50
17080;DHT22;8655;57.106;-2.088;2023-04-24T02:30:45;16.70;44.50
17080;DHT22;8655;57.106;-2.088;2023-04-24T02:33:11;16.70;44.50
17080;DHT22;8655;57.106;-2.088;2023-04-24T02:35:37;16.70;44.50
17080;DHT22;8655;57.106;-2.088;2023-04-24T02:38:03;16.70;44.50
17080;DHT22;8655;57.106;-2.088;2023-04-24T02:40:29;16.70;44.50
17080;DHT22;8655;57.106;-2.088;2023-04-24T02:42:55;16.60;44.40
17080;DHT22;8655;57.106;-2.088;2023-04-24T02:45:21;16.60;44.40
17080;DHT22;8655;57.106;-2.088;2023-04-24T02:47:46;16.60;44.40
17080;DHT22;8655;57.106;-2.088;2023-04-24T02:50:12;16.60;44.40
17080;DHT22;8655;57.106;-2.088;2023-04-24T02:52:38;16.60;44.40
17080;DHT22;8655;57.106;-2.088;2023-04-24T02:55:04;16.60;44.40
17080;DHT22;8655;57.106;-2.088;2023-04-24T02:57:30;16.60;44.40
17080;DHT22;8655;57.106;-2.088;2023-04-24T02:59:56;16.60;44.40
17080;DHT22;8655;57.106;-2.088;2023-04-24T03:02:22;16.60;44.40
17080;DHT22;8655;57.106;-2.088;2023-04-24T03:04:47;16.50;44.30
17080;DHT22;8655;57.106;-2.088;2023-04-24T03:07:13;16.50;44.30
17080;DHT22;8655;57.106;-2.088;2023-04-24T03:09:40;16.50;44.30
17080;DHT22;8655;57.106;-2.088;2023-04-24T03:12:06;16.50;44.30
17080;DHT22;8655;57.106;-2.088;2023-04-24T03:14:32;16.50;44.30
17080;DHT22;8655;57.106;-2.088;2023-04-24T03:16:57;16.50;44.30
17080;DHT22;8655;57.106;-2.088;2023-04-24T03:19:23;16.50;44.30
17080;DHT22;8655;57.106;-2.088;2023-04-24T03:21:49;16.50;44.30
17080;DHT22;8655;57.106;-2.088;2023-04-24T03:24:15;16.50;44.30
17080;DHT22;8655;57.106;-2.088;2023-04-24T03:26:40;16.50;44.30
17080;DHT22;8655;57.106;-2.088;2023-04-24T03:29:06;16.50;44.30
17080;DHT22;8655;57.106;-2.088;2023-04-24T03:31:32;16.50;44.30
17080;DHT22;8655;57.106;-2.088;2023-04-24T03:33:57;16.40;44.20
17080;DHT22;8655;57.106;-2.088;2023-04-24T03:36:23;16.40;44.20
17080;DHT22;8655;57.106;-2.088;2023-04-24T03:38:49;16.40;44.20
17080;DHT22;8655;57.106;-2.088;2023-04-24T03:41:15;16.40;44.20
17080;DHT22;8655;57.106;-2.088;2023-04-24T03:43:40;16.40;44.20
17080;DHT22;8655;57.106;-2.088;2023-04-24T03:46:06;16.40;44.20
17080;DHT22;8655;57.106;-2.088;2023-04-24T03:48:34;16.40;44.20
17080;DHT22;8655;57.106;-2.088;2023-04-24T03:51:00;16.40;44.20
17080;DHT22;8655;57.106;-2.088;2023-04-24T03:53:26;16.40;44.20
17080;DHT22;8655;57.106;-2.088;2023-04-24T03:55:53;16.40;44.20
17080;DHT22;8655;57.106;-2.088;2023-04-24T03:58:18;16.30;44.10
17080;DHT22;8655;57.106;-2.088;2023-04-24T04:00:44;16.30;44.10
17080;DHT22;8655;57.106;-2.088;2023-04-24T04:03:12;16.30;44.10
17080;DHT22;8655;57.106;-2.088;2023-04-24T04:05:39;16.30;44.10
17080;DHT22;8655;57.106;-2.088;2023-04-24T04:08:04;16.30;44.10
17080;DHT22;8655;57.106;-2.088;2023-04-24T04:10:30;16.30;44.10
17080;DHT22;8655;57.106;-2.088;2023-04-24T04:12:56;16.30;44.10
17080;DHT22;8655;57.106;-2.088;2023-04-24T04:15:22;16.30;44.10
17080;DHT22;8655;57.106;-2.088;2023-04-24T04:17:47;16.30;44.10
17080;DHT22;8655;57.106;-2.088;2023-04-24T04:20:13;16.30;44.00
17080;DHT22;8655;57.106;-2.088;2023-04-24T04:22:39;16.20;44.00
17080;DHT22;8655;57.106;-2.088;2023-04-24T04:25:05;16.20;44.00
17080;DHT22;8655;57.106;-2.088;2023-04-24T04:27:32;16.30;44.00
17080;DHT22;8655;57.106;-2.088;2023-04-24T04:30:03;16.20;44.00
17080;DHT22;8655;57.106;-2.088;2023-04-24T04:32:32;16.20;43.90
17080;DHT22;8655;57.106;-2.088;2023-04-24T04:35:01;16.20;43.90
17080;DHT22;8655;57.106;-2.088;2023-04-24T04:37:30;16.20;43.90
17080;DHT22;8655;57.106;-2.088;2023-04-24T04:39:59;16.20;43.90
17080;DHT22;8655;57.106;-2.088;2023-04-24T04:42:25;16.20;43.90
17080;DHT22;8655;57.106;-2.088;2023-04-24T04:44:52;16.20;43.90
17080;DHT22;8655;57.106;-2.088;2023-04-24T04:47:18;16.20;43.90
17080;DHT22;8655;57.106;-2.088;2023-04-24T04:49:47;16.10;43.80
17080;DHT22;8655;57.106;-2.088;2023-04-24T04:52:13;16.20;43.90
17080;DHT22;8655;57.106;-2.088;2023-04-24T04:54:39;16.10;43.80
17080;DHT22;8655;57.106;-2.088;2023-04-24T04:57:05;16.10;43.80
17080;DHT22;8655;57.106;-2.088;2023-04-24T04:59:31;16.10;43.80
17080;DHT22;8655;57.106;-2.088;2023-04-24T05:01:56;16.10;43.80
17080;DHT22;8655;57.106;-2.088;2023-04-24T05:04:22;16.10;43.80
17080;DHT22;8655;57.106;-2.088;2023-04-24T05:06:48;16.10;43.80
17080;DHT22;8655;57.106;-2.088;2023-04-24T05:09:13;16.10;44.00
17080;DHT22;8655;57.106;-2.088;2023-04-24T05:11:39;16.10;43.80
17080;DHT22;8655;57.106;-2.088;2023-04-24T05:14:05;16.10;43.80
17080;DHT22;8655;57.106;-2.088;2023-04-24T05:16:31;16.00;43.70
17080;DHT22;8655;57.106;-2.088;2023-04-24T05:18:57;16.00;43.70
17080;DHT22;8655;57.106;-2.088;2023-04-24T05:21:22;16.00;43.70
17080;DHT22;8655;57.106;-2.088;2023-04-24T05:23:48;16.00;43.70
17080;DHT22;8655;57.106;-2.088;2023-04-24T05:26:14;16.00;43.70
17080;DHT22;8655;57.106;-2.088;2023-04-24T05:28:40;16.00;43.70
17080;DHT22;8655;57.106;-2.088;2023-04-24T05:31:06;16.00;43.70
17080;DHT22;8655;57.106;-2.088;2023-04-24T05:33:32;16.00;43.70
17080;DHT22;8655;57.106;-2.088;2023-04-24T05:35:57;16.00;43.70
17080;DHT22;8655;57.106;-2.088;2023-04-24T05:38:23;16.00;43.70
17080;DHT22;8655;57.106;-2.088;2023-04-24T05:40:49;15.90;43.60
17080;DHT22;8655;57.106;-2.088;2023-04-24T05:43:14;15.90;43.60
17080;DHT22;8655;57.106;-2.088;2023-04-24T05:45:40;16.00;43.80
17080;DHT22;8655;57.106;-2.088;2023-04-24T05:48:06;15.90;43.60
17080;DHT22;8655;57.106;-2.088;2023-04-24T05:50:31;15.90;43.60
17080;DHT22;8655;57.106;-2.088;2023-04-24T05:52:57;15.90;43.60
17080;DHT22;8655;57.106;-2.088;2023-04-24T05:55:27;15.90;43.70
17080;DHT22;8655;57.106;-2.088;2023-04-24T05:57:53;15.90;43.70
17080;DHT22;8655;57.106;-2.088;2023-04-24T06:00:20;15.90;43.70
17080;DHT22;8655;57.106;-2.088;2023-04-24T06:02:46;15.90;43.70
17080;DHT22;8655;57.106;-2.088;2023-04-24T06:05:12;16.00;43.80
17080;DHT22;8655;57.106;-2.088;2023-04-24T06:07:38;16.10;43.80
17080;DHT22;8655;57.106;-2.088;2023-04-24T06:10:04;16.10;43.80
17080;DHT22;8655;57.106;-2.088;2023-04-24T06:12:29;16.10;43.80
17080;DHT22;8655;57.106;-2.088;2023-04-24T06:14:55;16.10;44.60
17080;DHT22;8655;57.106;-2.088;2023-04-24T06:17:21;16.20;43.70
17080;DHT22;8655;57.106;-2.088;2023-04-24T06:19:47;16.20;43.70
17080;DHT22;8655;57.106;-2.088;2023-04-24T06:22:13;16.30;43.80
17080;DHT22;8655;57.106;-2.088;2023-04-24T06:24:40;16.30;43.70
17080;DHT22;8655;57.106;-2.088;2023-04-24T06:27:05;16.40;43.80
17080;DHT22;8655;57.106;-2.088;2023-04-24T06:29:32;16.40;43.80
17080;DHT22;8655;57.106;-2.088;2023-04-24T06:31:58;16.50;43.80
17080;DHT22;8655;57.106;-2.088;2023-04-24T06:34:24;16.50;43.80
17080;DHT22;8655;57.106;-2.088;2023-04-24T06:36:51;16.60;43.90
17080;DHT22;8655;57.106;-2.088;2023-04-24T06:39:16;16.60;43.90
17080;DHT22;8655;57.106;-2.088;2023-04-24T06:41:42;16.70;44.50
17080;DHT22;8655;57.106;-2.088;2023-04-24T06:44:08;16.70;43.90
17080;DHT22;8655;57.106;-2.088;2023-04-24T06:46:33;16.80;44.00
17080;DHT22;8655;57.106;-2.088;2023-04-24T06:49:00;16.80;43.90
17080;DHT22;8655;57.106;-2.088;2023-04-24T06:51:26;16.90;44.00
17080;DHT22;8655;57.106;-2.088;2023-04-24T06:53:55;16.90;44.00
17080;DHT22;8655;57.106;-2.088;2023-04-24T06:56:23;17.00;44.10
17080;DHT22;8655;57.106;-2.088;2023-04-24T06:58:49;17.00;44.00
17080;DHT22;8655;57.106;-2.088;2023-04-24T07:01:15;17.10;44.10
17080;DHT22;8655;57.106;-2.088;2023-04-24T07:03:41;17.10;44.10
17080;DHT22;8655;57.106;-2.088;2023-04-24T07:06:07;17.20;44.20
17080;DHT22;8655;57.106;-2.088;2023-04-24T07:08:33;17.20;44.10
17080;DHT22;8655;57.106;-2.088;2023-04-24T07:10:59;17.20;44.10
17080;DHT22;8655;57.106;-2.088;2023-04-24T07:13:25;17.30;44.20
17080;DHT22;8655;57.106;-2.088;2023-04-24T07:15:51;17.30;44.20
17080;DHT22;8655;57.106;-2.088;2023-04-24T07:18:20;17.40;44.30
17080;DHT22;8655;57.106;-2.088;2023-04-24T07:20:45;17.40;44.30
17080;DHT22;8655;57.106;-2.088;2023-04-24T07:23:11;17.40;44.30
17080;DHT22;8655;57.106;-2.088;2023-04-24T07:25:37;17.50;44.30
17080;DHT22;8655;57.106;-2.088;2023-04-24T07:28:04;17.50;44.30
17080;DHT22;8655;57.106;-2.088;2023-04-24T07:30:30;17.60;44.40
17080;DHT22;8655;57.106;-2.088;2023-04-24T07:32:58;17.60;44.30
17080;DHT22;8655;57.106;-2.088;2023-04-24T07:35:24;17.70;44.40
17080;DHT22;8655;57.106;-2.088;2023-04-24T07:37:51;17.70;44.40
17080;DHT22;8655;57.106;-2.088;2023-04-24T07:40:18;17.70;44.40
17080;DHT22;8655;57.106;-2.088;2023-04-24T07:42:44;17.80;44.40
17080;DHT22;8655;57.106;-2.088;2023-04-24T07:45:10;17.80;44.40
17080;DHT22;8655;57.106;-2.088;2023-04-24T07:47:36;17.90;44.60
17080;DHT22;8655;57.106;-2.088;2023-04-24T07:50:03;17.90;44.50
17080;DHT22;8655;57.106;-2.088;2023-04-24T07:52:29;17.90;44.50
17080;DHT22;8655;57.106;-2.088;2023-04-24T07:54:55;18.00;44.60
17080;DHT22;8655;57.106;-2.088;2023-04-24T07:57:25;18.00;44.50
17080;DHT22;8655;57.106;-2.088;2023-04-24T07:59:51;18.00;44.50
17080;DHT22;8655;57.106;-2.088;2023-04-24T08:02:17;18.00;44.50
17080;DHT22;8655;57.106;-2.088;2023-04-24T08:04:43;18.10;44.60
17080;DHT22;8655;57.106;-2.088;2023-04-24T08:07:09;18.10;44.60
17080;DHT22;8655;57.106;-2.088;2023-04-24T08:09:34;18.10;44.60
17080;DHT22;8655;57.106;-2.088;2023-04-24T08:12:00;18.10;44.60
17080;DHT22;8655;57.106;-2.088;2023-04-24T08:14:26;18.10;44.60
17080;DHT22;8655;57.106;-2.088;2023-04-24T08:16:54;18.10;44.60
17080;DHT22;8655;57.106;-2.088;2023-04-24T08:19:21;18.10;44.70
17080;DHT22;8655;57.106;-2.088;2023-04-24T08:21:47;18.10;44.60
17080;DHT22;8655;57.106;-2.088;2023-04-24T08:24:12;18.10;44.60
17080;DHT22;8655;57.106;-2.088;2023-04-24T08:26:38;18.10;44.60
17080;DHT22;8655;57.106;-2.088;2023-04-24T08:29:04;18.10;44.60
17080;DHT22;8655;57.106;-2.088;2023-04-24T08:31:32;18.10;44.60
17080;DHT22;8655;57.106;-2.088;2023-04-24T08:33:57;18.00;45.10
17080;DHT22;8655;57.106;-2.088;2023-04-24T08:36:24;18.00;44.50
17080;DHT22;8655;57.106;-2.088;2023-04-24T08:38:49;18.00;44.50
17080;DHT22;8655;57.106;-2.088;2023-04-24T08:41:15;18.00;44.50
17080;DHT22;8655;57.106;-2.088;2023-04-24T08:43:43;18.00;44.50
17080;DHT22;8655;57.106;-2.088;2023-04-24T08:46:12;18.00;44.50
17080;DHT22;8655;57.106;-2.088;2023-04-24T08:48:39;18.00;44.50
17080;DHT22;8655;57.106;-2.088;2023-04-24T08:51:07;18.00;44.50
17080;DHT22;8655;57.106;-2.088;2023-04-24T08:53:33;17.90;44.40
17080;DHT22;8655;57.106;-2.088;2023-04-24T08:56:01;17.90;44.40
17080;DHT22;8655;57.106;-2.088;2023-04-24T08:58:27;17.90;44.40
17080;DHT22;8655;57.106;-2.088;2023-04-24T09:00:57;17.90;44.40
17080;DHT22;8655;57.106;-2.088;2023-04-24T09:03:24;17.90;44.40
17080;DHT22;8655;57.106;-2.088;2023-04-24T09:05:50;17.90;44.40
17080;DHT22;8655;57.106;-2.088;2023-04-24T09:08:19;17.90;44.50
17080;DHT22;8655;57.106;-2.088;2023-04-24T09:10:45;17.80;44.30
17080;DHT22;8655;57.106;-2.088;2023-04-24T09:13:11;17.80;44.30
17080;DHT22;8655;57.106;-2.088;2023-04-24T09:15:40;17.80;44.40
17080;DHT22;8655;57.106;-2.088;2023-04-24T09:18:06;17.80;44.30
17080;DHT22;8655;57.106;-2.088;2023-04-24T09:20:32;17.80;44.40
17080;DHT22;8655;57.106;-2.088;2023-04-24T09:22:58;17.70;44.30
17080;DHT22;8655;57.106;-2.088;2023-04-24T09:25:42;17.70;44.30
17080;DHT22;8655;57.106;-2.088;2023-04-24T09:28:08;17.70;44.30
17080;DHT22;8655;57.106;-2.088;2023-04-24T09:30:34;17.70;44.30
17080;DHT22;8655;57.106;-2.088;2023-04-24T09:33:15;17.60;44.20
17080;DHT22;8655;57.106;-2.088;2023-04-24T09:35:51;17.60;44.20
17080;DHT22;8655;57.106;-2.088;2023-04-24T09:38:17;17.60;44.20
17080;DHT22;8655;57.106;-2.088;2023-04-24T09:40:43;17.60;44.20
17080;DHT22;8655;57.106;-2.088;2023-04-24T09:43:12;17.60;44.20
17080;DHT22;8655;57.106;-2.088;2023-04-24T09:45:39;17.60;44.20
17080;DHT22;8655;57.106;-2.088;2023-04-24T09:48:05;17.50;44.10
17080;DHT22;8655;57.106;-2.088;2023-04-24T09:50:34;17.50;44.10
17080;DHT22;8655;57.106;-2.088;2023-04-24T09:53:05;17.50;44.10
17080;DHT22;8655;57.106;-2.088;2023-04-24T09:55:32;17.50;44.00
17080;DHT22;8655;57.106;-2.088;2023-04-24T09:57:59;17.50;44.10
17080;DHT22;8655;57.106;-2.088;2023-04-24T10:00:33;17.50;44.00
17080;DHT22;8655;57.106;-2.088;2023-04-24T10:03:00;17.40;44.00
17080;DHT22;8655;57.106;-2.088;2023-04-24T10:05:34;17.40;44.00
17080;DHT22;8655;57.106;-2.088;2023-04-24T10:08:05;17.40;44.00
17080;DHT22;8655;57.106;-2.088;2023-04-24T10:10:33;17.40;43.90
17080;DHT22;8655;57.106;-2.088;2023-04-24T10:13:00;17.40;44.00
17080;DHT22;8655;57.106;-2.088;2023-04-24T10:15:26;17.40;43.90
17080;DHT22;8655;57.106;-2.088;2023-04-24T10:17:53;17.40;43.90
17080;DHT22;8655;57.106;-2.088;2023-04-24T10:20:20;17.40;43.90
17080;DHT22;8655;57.106;-2.088;2023-04-24T10:22:51;17.40;43.90
17080;DHT22;8655;57.106;-2.088;2023-04-24T10:25:22;17.30;43.80
17080;DHT22;8655;57.106;-2.088;2023-04-24T10:27:49;17.30;44.40
17080;DHT22;8655;57.106;-2.088;2023-04-24T10:30:16;17.30;43.80
17080;DHT22;8655;57.106;-2.088;2023-04-24T10:32:42;17.30;43.80
17080;DHT22;8655;57.106;-2.088;2023-04-24T10:35:09;17.30;43.80
17080;DHT22;8655;57.106;-2.088;2023-04-24T10:37:41;17.30;43.70
17080;DHT22;8655;57.106;-2.088;2023-04-24T10:40:09;17.30;43.70
17080;DHT22;8655;57.106;-2.088;2023-04-24T10:42:39;17.20;43.60
17080;DHT22;8655;57.106;-2.088;2023-04-24T10:45:07;17.20;43.60
17080;DHT22;8655;57.106;-2.088;2023-04-24T10:47:41;17.20;43.60
17080;DHT22;8655;57.106;-2.088;2023-04-24T10:50:10;17.20;43.60
17080;DHT22;8655;57.106;-2.088;2023-04-24T10:52:49;17.20;43.60
17080;DHT22;8655;57.106;-2.088;2023-04-24T10:55:42;17.20;43.50
17080;DHT22;8655;57.106;-2.088;2023-04-24T10:58:09;17.20;43.60
17080;DHT22;8655;57.106;-2.088;2023-04-24T11:00:39;17.10;43.50
17080;DHT22;8655;57.106;-2.088;2023-04-24T11:03:22;17.10;43.50
17080;DHT22;8655;57.106;-2.088;2023-04-24T11:08:24;17.10;43.40
17080;DHT22;8655;57.106;-2.088;2023-04-24T11:16:42;17.10;43.40
17080;DHT22;8655;57.106;-2.088;2023-04-24T11:24:25;17.00;43.30
17080;DHT22;8655;57.106;-2.088;2023-04-24T11:26:55;17.00;43.30
17080;DHT22;8655;57.106;-2.088;2023-04-24T11:29:22;17.00;43.30
17080;DHT22;8655;57.106;-2.088;2023-04-24T11:31:49;17.00;43.30
17080;DHT22;8655;57.106;-2.088;2023-04-24T11:34:17;17.00;43.30
17080;DHT22;8655;57.106;-2.088;2023-04-24T11:36:45;17.00;43.30
17080;DHT22;8655;57.106;-2.088;2023-04-24T11:39:11;17.00;43.20
17080;DHT22;8655;57.106;-2.088;2023-04-24T11:41:37;17.00;43.20
17080;DHT22;8655;57.106;-2.088;2023-04-24T11:44:07;17.00;43.30
17080;DHT22;8655;57.106;-2.088;2023-04-24T11:46:33;17.00;43.20
17080;DHT22;8655;57.106;-2.088;2023-04-24T11:48:59;17.00;43.20
17080;DHT22;8655;57.106;-2.088;2023-04-24T11:51:26;17.00;43.20
17080;DHT22;8655;57.106;-2.088;2023-04-24T11:53:56;17.00;43.20
17080;DHT22;8655;57.106;-2.088;2023-04-24T11:56:25;17.00;43.20
17080;DHT22;8655;57.106;-2.088;2023-04-24T11:58:53;16.90;43.10
17080;DHT22;8655;57.106;-2.088;2023-04-24T12:01:20;16.90;43.10
17080;DHT22;8655;57.106;-2.088;2023-04-24T12:03:59;16.90;43.00
17080;DHT22;8655;57.106;-2.088;2023-04-24T12:06:25;16.90;43.00
17080;DHT22;8655;57.106;-2.088;2023-04-24T12:08:52;16.90;43.00
17080;DHT22;8655;57.106;-2.088;2023-04-24T12:11:20;16.90;43.00
17080;DHT22;8655;57.106;-2.088;2023-04-24T12:13:46;16.90;43.00
17080;DHT22;8655;57.106;-2.088;2023-04-24T12:16:12;16.90;43.00
17080;DHT22;8655;57.106;-2.088;2023-04-24T12:18:45;16.90;43.00
17080;DHT22;8655;57.106;-2.088;2023-04-24T12:21:22;16.90;42.90
17080;DHT22;8655;57.106;-2.088;2023-04-24T12:23:48;16.90;42.90
17080;DHT22;8655;57.106;-2.088;2023-04-24T12:26:18;16.90;42.90
17080;DHT22;8655;57.106;-2.088;2023-04-24T12:28:47;16.90;42.90
17080;DHT22;8655;57.106;-2.088;2023-04-24T12:31:15;16.80;42.80
17080;DHT22;8655;57.106;-2.088;2023-04-24T12:33:40;16.80;42.80
17080;DHT22;8655;57.106;-2.088;2023-04-24T12:36:06;16.80;42.90
17080;DHT22;8655;57.106;-2.088;2023-04-24T12:38:35;16.80;42.80
17080;DHT22;8655;57.106;-2.088;2023-04-24T12:41:08;16.80;42.80
17080;DHT22;8655;57.106;-2.088;2023-04-24T12:43:34;16.80;42.80
17080;DHT22;8655;57.106;-2.088;2023-04-24T12:46:00;16.80;42.80
17080;DHT22;8655;57.106;-2.088;2023-04-24T12:48:29;16.80;42.80
17080;DHT22;8655;57.106;-2.088;2023-04-24T12:50:57;16.80;42.80
17080;DHT22;8655;57.106;-2.088;2023-04-24T12:53:26;16.80;42.80
17080;DHT22;8655;57.106;-2.088;2023-04-24T12:55:53;16.80;42.80
17080;DHT22;8655;57.106;-2.088;2023-04-24T12:58:22;16.80;42.80
17080;DHT22;8655;57.106;-2.088;2023-04-24T13:00:48;16.80;42.80
17080;DHT22;8655;57.106;-2.088;2023-04-24T13:03:14;16.80;42.80
17080;DHT22;8655;57.106;-2.088;2023-04-24T13:05:40;16.70;42.70
17080;DHT22;8655;57.106;-2.088;2023-04-24T13:08:06;16.70;42.70
17080;DHT22;8655;57.106;-2.088;2023-04-24T13:10:31;16.70;42.70
17080;DHT22;8655;57.106;-2.088;2023-04-24T13:12:57;16.70;42.70
17080;DHT22;8655;57.106;-2.088;2023-04-24T13:15:23;16.70;42.70
17080;DHT22;8655;57.106;-2.088;2023-04-24T13:17:50;16.70;42.70
17080;DHT22;8655;57.106;-2.088;2023-04-24T13:20:15;16.70;42.70
17080;DHT22;8655;57.106;-2.088;2023-04-24T13:22:41;16.70;42.60
17080;DHT22;8655;57.106;-2.088;2023-04-24T13:25:07;16.70;42.60
17080;DHT22;8655;57.106;-2.088;2023-04-24T13:27:33;16.70;42.60
17080;DHT22;8655;57.106;-2.088;2023-04-24T13:29:58;16.70;42.70
17080;DHT22;8655;57.106;-2.088;2023-04-24T13:32:24;16.70;42.60
17080;DHT22;8655;57.106;-2.088;2023-04-24T13:34:50;16.70;42.60
17080;DHT22;8655;57.106;-2.088;2023-04-24T13:37:16;16.70;42.50
17080;DHT22;8655;57.106;-2.088;2023-04-24T13:39:42;16.60;42.50
17080;DHT22;8655;57.106;-2.088;2023-04-24T13:42:08;16.60;42.50
17080;DHT22;8655;57.106;-2.088;2023-04-24T13:44:33;16.60;42.40
17080;DHT22;8655;57.106;-2.088;2023-04-24T13:46:59;16.60;42.50
17080;DHT22;8655;57.106;-2.088;2023-04-24T13:49:26;16.60;42.40
17080;DHT22;8655;57.106;-2.088;2023-04-24T13:51:53;16.60;42.40
17080;DHT22;8655;57.106;-2.088;2023-04-24T13:54:19;16.60;42.40
17080;DHT22;8655;57.106;-2.088;2023-04-24T13:56:45;16.60;42.40
17080;DHT22;8655;57.106;-2.088;2023-04-24T13:59:12;16.60;42.40
17080;DHT22;8655;57.106;-2.088;2023-04-24T14:01:38;16.60;42.40
17080;DHT22;8655;57.106;-2.088;2023-04-24T14:04:04;16.60;42.30
17080;DHT22;8655;57.106;-2.088;2023-04-24T14:06:29;16.60;42.30
17080;DHT22;8655;57.106;-2.088;2023-04-24T14:08:57;16.60;42.40
17080;DHT22;8655;57.106;-2.088;2023-04-24T14:11:23;16.60;42.30
17080;DHT22;8655;57.106;-2.088;2023-04-24T14:13:49;16.60;42.30
17080;DHT22;8655;57.106;-2.088;2023-04-24T14:16:15;16.60;42.30
17080;DHT22;8655;57.106;-2.088;2023-04-24T14:18:40;16.50;42.30
17080;DHT22;8655;57.106;-2.088;2023-04-24T14:21:06;16.50;42.20
17080;DHT22;8655;57.106;-2.088;2023-04-24T14:23:32;16.50;42.20
17080;DHT22;8655;57.106;-2.088;2023-04-24T14:25:58;16.50;42.30
17080;DHT22;8655;57.106;-2.088;2023-04-24T14:28:25;16.50;42.20
17080;DHT22;8655;57.106;-2.088;2023-04-24T14:30:52;16.50;42.20
17080;DHT22;8655;57.106;-2.088;2023-04-24T14:33:18;16.50;42.20
17080;DHT22;8655;57.106;-2.088;2023-04-24T14:35:44;16.50;42.20
17080;DHT22;8655;57.106;-2.088;2023-04-24T14:38:10;16.50;42.20
17080;DHT22;8655;57.106;-2.088;2023-04-24T14:40:36;16.60;42.30
17080;DHT22;8655;57.106;-2.088;2023-04-24T14:43:02;16.50;42.10
17080;DHT22;8655;57.106;-2.088;2023-04-24T14:45:28;16.50;42.10
17080;DHT22;8655;57.106;-2.088;2023-04-24T14:47:54;16.50;42.20
17080;DHT22;8655;57.106;-2.088;2023-04-24T14:50:20;16.50;42.10
17080;DHT22;8655;57.106;-2.088;2023-04-24T14:52:46;16.50;42.10
17080;DHT22;8655;57.106;-2.088;2023-04-24T14:55:12;16.50;42.20
17080;DHT22;8655;57.106;-2.088;2023-04-24T14:57:38;16.50;42.10
17080;DHT22;8655;57.106;-2.088;2023-04-24T15:00:05;16.50;42.10
17080;DHT22;8655;57.106;-2.088;2023-04-24T15:02:33;16.50;42.10
17080;DHT22;8655;57.106;-2.088;2023-04-24T15:04:59;16.50;42.10
17080;DHT22;8655;57.106;-2.088;2023-04-24T15:07:25;16.50;42.10
17080;DHT22;8655;57.106;-2.088;2023-04-24T15:09:50;16.40;42.00
17080;DHT22;8655;57.106;-2.088;2023-04-24T15:12:16;16.40;42.00
17080;DHT22;8655;57.106;-2.088;2023-04-24T15:14:42;16.40;42.00
17080;DHT22;8655;57.106;-2.088;2023-04-24T15:17:08;16.40;42.70
17080;DHT22;8655;57.106;-2.088;2023-04-24T15:19:33;16.40;42.00
17080;DHT22;8655;57.106;-2.088;2023-04-24T15:21:59;16.40;42.00
17080;DHT22;8655;57.106;-2.088;2023-04-24T15:24:25;16.40;42.00
17080;DHT22;8655;57.106;-2.088;2023-04-24T15:26:50;16.40;42.00
17080;DHT22;8655;57.106;-2.088;2023-04-24T15:29:16;16.40;42.00
17080;DHT22;8655;57.106;-2.088;2023-04-24T15:31:42;16.40;42.00
17080;DHT22;8655;57.106;-2.088;2023-04-24T15:34:07;16.40;41.90
17080;DHT22;8655;57.106;-2.088;2023-04-24T15:36:34;16.40;42.00
17080;DHT22;8655;57.106;-2.088;2023-04-24T15:39:04;16.40;41.90
17080;DHT22;8655;57.106;-2.088;2023-04-24T15:41:29;16.40;41.90